Time;durP1;ratioP1;P1;durP2;ratioP2;P2;SDS_P1;SDS_P2;PMS_P1;PMS_P2;Temp;Humidity;BMP_temperature;BMP_pressure;BME280_temperature;BME280_humidity;BME280_pressure;Samples;Min_cycle;Max_cycle;Signal;HPM_P1;HPM_P2
2022/05/15 00:02:20;;;;;;;21.50;7.68;;;13.00;99.90;;;;;;5102458;28;21566;-60
2022/05/15 00:04:46;;;;;;;28.75;8.15;;;13.20;99.90;;;;;;5099093;28;20063;-60
2022/05/15 00:07:12;;;;;;;20.55;7.07;;;13.10;99.90;;;;;;5102400;28;20047;-60
2022/05/15 00:09:38;;;;;;;26.02;8.45;;;12.90;99.90;;;;;;5101796;28;20049;-60
2022/05/15 00:12:05;;;;;;;24.23;7.45;;;12.80;99.90;;;;;;5100678;28;20040;-60
2022/05/15 00:14:32;;;;;;;22.08;7.60;;;12.70;99.90;;;;;;5083723;28;20038;-60
2022/05/15 00:16:57;;;;;;;23.55;7.82;;;12.80;99.90;;;;;;5102776;28;20051;-60
2022/05/15 00:19:23;;;;;;;27.73;7.97;;;12.70;99.90;;;;;;5100994;28;20035;-60
2022/05/15 00:21:48;;;;;;;25.13;8.15;;;12.70;99.90;;;;;;5102382;28;20031;-62
2022/05/15 00:24:14;;;;;;;22.50;7.60;;;12.60;99.90;;;;;;5098584;28;20044;-61
2022/05/15 00:26:40;;;;;;;24.95;8.48;;;12.60;99.90;;;;;;5083970;28;20461;-60
2022/05/15 00:29:06;;;;;;;24.27;7.85;;;12.50;99.90;;;;;;5097331;28;20035;-61
2022/05/15 00:31:32;;;;;;;20.90;7.25;;;12.40;99.90;;;;;;5101506;28;20055;-60
2022/05/15 00:33:57;;;;;;;25.50;7.30;;;12.30;99.90;;;;;;5098726;28;20036;-60
2022/05/15 00:36:23;;;;;;;28.23;7.60;;;12.30;99.90;;;;;;5103786;28;20040;-60
2022/05/15 00:38:49;;;;;;;20.98;6.90;;;12.20;99.90;;;;;;5101482;28;20356;-61
2022/05/15 00:41:15;;;;;;;23.52;7.03;;;12.20;99.90;;;;;;5102526;28;20356;-60
2022/05/15 00:43:56;;;;;;;23.40;7.35;;;12.10;99.90;;;;;;5100512;28;20028;-61
2022/05/15 00:46:29;;;;;;;24.55;6.80;;;12.10;99.90;;;;;;5102671;28;20031;-61
2022/05/15 00:48:57;;;;;;;21.75;7.57;;;12.10;99.90;;;;;;5103111;28;20032;-60
2022/05/15 00:51:35;;;;;;;22.98;5.78;;;12.10;99.90;;;;;;5100283;28;20127;-60
2022/05/15 00:54:11;;;;;;;22.67;7.03;;;12.00;99.90;;;;;;5098118;28;20137;-60
2022/05/15 00:56:42;;;;;;;22.98;7.60;;;12.20;99.90;;;;;;5100853;28;20161;-61
2022/05/15 00:59:12;;;;;;;22.33;6.45;;;12.20;99.90;;;;;;5097473;28;20118;-61
2022/05/15 01:01:38;;;;;;;21.60;7.10;;;12.20;99.90;;;;;;5102018;28;20465;-60
2022/05/15 01:04:04;;;;;;;25.25;7.18;;;12.10;99.90;;;;;;5098664;28;20115;-60
2022/05/15 01:06:31;;;;;;;27.38;7.35;;;12.20;99.90;;;;;;5100819;28;20035;-61
2022/05/15 01:08:56;;;;;;;21.42;6.93;;;12.20;99.90;;;;;;5101501;28;20052;-61
2022/05/15 01:11:24;;;;;;;22.75;7.43;;;12.30;99.90;;;;;;5100227;28;20059;-61
2022/05/15 01:13:52;;;;;;;20.60;6.45;;;12.30;99.90;;;;;;5099971;28;20020;-61
2022/05/15 01:16:26;;;;;;;23.23;7.35;;;12.30;99.90;;;;;;5100900;28;20044;-61
2022/05/15 01:18:58;;;;;;;23.30;6.60;;;12.10;99.90;;;;;;5097085;28;20036;-61
2022/05/15 01:21:33;;;;;;;28.27;6.97;;;12.00;99.90;;;;;;5099862;28;20102;-60
2022/05/15 01:24:01;;;;;;;23.98;7.30;;;12.00;99.90;;;;;;5097993;28;20469;-60
2022/05/15 01:26:27;;;;;;;24.30;6.45;;;11.90;99.90;;;;;;5096388;28;20395;-60
2022/05/15 01:28:53;;;;;;;24.58;7.63;;;12.00;99.90;;;;;;5084079;28;20105;-61
2022/05/15 01:31:20;;;;;;;21.95;7.55;;;11.80;99.90;;;;;;5099681;28;20035;-60
2022/05/15 01:33:50;;;;;;;26.98;7.63;;;11.70;99.90;;;;;;5094495;28;20039;-60
2022/05/15 01:36:18;;;;;;;25.13;6.78;;;11.60;99.90;;;;;;5101203;28;20248;-60
2022/05/15 01:38:44;;;;;;;21.70;7.80;;;11.50;99.90;;;;;;5099698;28;20058;-60
2022/05/15 01:41:12;;;;;;;25.75;7.07;;;11.50;99.90;;;;;;5101889;28;20518;-61
2022/05/15 01:43:40;;;;;;;26.98;7.90;;;11.60;99.90;;;;;;5099899;28;20066;-61
2022/05/15 01:46:06;;;;;;;21.83;5.93;;;11.60;99.90;;;;;;5080201;28;20478;-61
2022/05/15 01:48:33;;;;;;;21.95;6.30;;;11.50;99.90;;;;;;5100408;28;20114;-61
2022/05/15 01:50:58;;;;;;;21.02;6.80;;;11.60;99.90;;;;;;5101502;28;20357;-60
2022/05/15 01:53:24;;;;;;;21.02;6.55;;;11.50;99.90;;;;;;5097671;28;20495;-60
2022/05/15 01:55:50;;;;;;;25.05;7.10;;;11.60;99.90;;;;;;5101031;28;20031;-61
2022/05/15 01:58:16;;;;;;;26.42;7.93;;;11.50;99.90;;;;;;5100681;28;20457;-60
2022/05/15 02:00:42;;;;;;;25.70;7.72;;;11.50;99.90;;;;;;5099926;28;20063;-60
2022/05/15 02:03:07;;;;;;;24.38;6.68;;;11.50;99.90;;;;;;5098442;28;20440;-61
2022/05/15 02:05:33;;;;;;;24.35;7.60;;;11.50;99.90;;;;;;5096909;28;20040;-60
2022/05/15 02:07:59;;;;;;;22.92;7.38;;;11.50;99.90;;;;;;5099388;28;20028;-61
2022/05/15 02:10:24;;;;;;;19.70;7.18;;;11.40;99.90;;;;;;5101064;28;20077;-61
2022/05/15 02:12:50;;;;;;;21.67;6.32;;;11.50;99.90;;;;;;5099465;28;20048;-60
2022/05/15 02:15:16;;;;;;;27.08;7.60;;;11.60;99.90;;;;;;5096022;28;20035;-60
2022/05/15 02:17:41;;;;;;;19.77;6.35;;;11.50;99.90;;;;;;5104550;28;20524;-60
2022/05/15 02:20:10;;;;;;;20.77;6.50;;;11.40;99.90;;;;;;5086648;28;20521;-60
2022/05/15 02:22:38;;;;;;;18.25;6.47;;;11.30;99.90;;;;;;5103325;28;20714;-61
2022/05/15 02:25:06;;;;;;;24.15;7.30;;;11.20;99.90;;;;;;5098712;28;20050;-60
2022/05/15 02:27:32;;;;;;;24.20;7.82;;;11.30;99.90;;;;;;5103951;28;20040;-60
2022/05/15 02:29:58;;;;;;;23.55;7.40;;;11.20;99.90;;;;;;5103209;28;20160;-61
2022/05/15 02:32:24;;;;;;;19.58;6.50;;;11.10;99.90;;;;;;5104827;28;20047;-60
2022/05/15 02:34:50;;;;;;;26.52;7.97;;;11.00;99.90;;;;;;5098115;28;20036;-61
2022/05/15 02:37:15;;;;;;;23.40;7.13;;;10.90;99.90;;;;;;5103976;28;20044;-60
2022/05/15 02:39:41;;;;;;;20.42;7.47;;;10.80;99.90;;;;;;5105370;28;20395;-60
2022/05/15 02:42:07;;;;;;;23.13;7.30;;;10.70;99.90;;;;;;5104174;28;20157;-60
2022/05/15 02:44:33;;;;;;;20.00;7.40;;;10.70;99.90;;;;;;5098176;28;20031;-60
2022/05/15 02:46:58;;;;;;;17.65;6.75;;;10.80;99.90;;;;;;5104012;28;20032;-60
2022/05/15 02:52:08;;;;;;;21.10;7.22;;;10.90;99.90;;;;;;5100131;28;20082;-60
2022/05/15 02:54:34;;;;;;;23.20;8.15;;;10.90;99.90;;;;;;5099897;28;20375;-60
2022/05/15 02:57:03;;;;;;;20.27;7.15;;;10.80;99.90;;;;;;5105152;28;20036;-61
2022/05/15 02:59:28;;;;;;;23.00;7.05;;;10.90;99.90;;;;;;5084213;28;20036;-60
2022/05/15 03:01:54;;;;;;;18.38;6.40;;;10.90;99.90;;;;;;5104392;28;20043;-59
2022/05/15 03:04:19;;;;;;;20.05;6.28;;;10.80;99.90;;;;;;5100669;28;20039;-60
2022/05/15 03:06:45;;;;;;;19.05;6.47;;;10.70;99.90;;;;;;5097077;28;20046;-60
2022/05/15 03:09:11;;;;;;;18.23;6.13;;;10.60;99.90;;;;;;5103869;28;20258;-60
2022/05/15 03:11:36;;;;;;;19.27;7.18;;;10.60;99.90;;;;;;5103853;28;20468;-61
2022/05/15 03:14:02;;;;;;;21.48;7.00;;;10.50;99.90;;;;;;5101427;28;20119;-60
2022/05/15 03:16:29;;;;;;;25.52;7.00;;;10.50;99.90;;;;;;5104105;28;20042;-60
2022/05/15 03:18:55;;;;;;;27.40;6.70;;;10.50;99.90;;;;;;5086850;28;20640;-60
2022/05/15 03:21:29;;;;;;;18.42;6.25;;;10.60;99.90;;;;;;5102114;28;20082;-60
2022/05/15 03:24:10;;;;;;;20.63;6.93;;;10.80;99.90;;;;;;5099651;28;20042;-60
2022/05/15 03:26:42;;;;;;;24.02;7.30;;;10.90;99.90;;;;;;5101704;28;20059;-60
2022/05/15 03:29:09;;;;;;;22.90;7.28;;;10.80;99.90;;;;;;5097846;28;20115;-60
2022/05/15 03:31:35;;;;;;;21.88;6.95;;;10.80;99.90;;;;;;5103669;28;20508;-60
2022/05/15 03:34:06;;;;;;;18.58;7.40;;;10.70;99.90;;;;;;5102323;28;20115;-60
2022/05/15 03:36:33;;;;;;;22.92;7.95;;;10.60;99.90;;;;;;5103168;28;20031;-60
2022/05/15 03:38:59;;;;;;;24.17;10.05;;;10.50;99.90;;;;;;5103797;28;20039;-61
2022/05/15 03:41:25;;;;;;;24.85;11.43;;;10.50;99.90;;;;;;5103128;28;20036;-61
2022/05/15 03:43:50;;;;;;;25.23;11.25;;;10.40;99.90;;;;;;5100618;28;20032;-61
2022/05/15 03:46:16;;;;;;;24.63;11.57;;;10.30;99.90;;;;;;5103251;28;20032;-61
2022/05/15 03:48:41;;;;;;;22.50;10.27;;;10.20;99.90;;;;;;5101798;28;20044;-60
2022/05/15 03:51:07;;;;;;;26.25;9.65;;;10.20;99.90;;;;;;5103695;28;20067;-60
2022/05/15 03:53:33;;;;;;;24.33;9.40;;;10.10;99.90;;;;;;5102810;28;20040;-60
2022/05/15 03:55:59;;;;;;;22.92;9.63;;;10.00;99.90;;;;;;5084930;28;20032;-60
2022/05/15 03:58:26;;;;;;;24.15;9.20;;;10.00;99.90;;;;;;5103964;28;20040;-60
2022/05/15 04:00:52;;;;;;;21.98;9.02;;;10.10;99.90;;;;;;5102460;28;20686;-60
2022/05/15 04:03:18;;;;;;;21.25;7.97;;;10.10;99.90;;;;;;5101314;28;20043;-60
2022/05/15 04:05:44;;;;;;;21.15;8.60;;;10.10;99.90;;;;;;5100732;28;20488;-60
2022/05/15 04:08:10;;;;;;;22.65;8.98;;;10.20;99.90;;;;;;5103192;28;20036;-60
2022/05/15 04:10:37;;;;;;;20.70;8.00;;;10.20;99.90;;;;;;5102865;28;20055;-60
2022/05/15 04:13:03;;;;;;;23.00;7.93;;;10.30;99.90;;;;;;5103629;28;20044;-60
2022/05/15 04:15:29;;;;;;;22.52;8.80;;;10.30;99.90;;;;;;5101269;28;20040;-60
2022/05/15 04:17:54;;;;;;;23.13;7.28;;;10.20;99.90;;;;;;5102166;28;20055;-64
2022/05/15 04:20:23;;;;;;;22.10;8.25;;;10.20;99.90;;;;;;5104261;28;20086;-60
2022/05/15 04:22:50;;;;;;;21.15;8.27;;;10.20;99.90;;;;;;5084543;28;20248;-60
2022/05/15 04:25:16;;;;;;;19.25;8.35;;;10.20;99.90;;;;;;5098504;28;20044;-60
2022/05/15 04:27:42;;;;;;;26.35;9.38;;;10.20;99.90;;;;;;5104378;28;20046;-60
2022/05/15 04:30:11;;;;;;;25.42;9.23;;;10.30;99.90;;;;;;5101350;28;20036;-60
2022/05/15 04:32:36;;;;;;;25.83;9.57;;;10.30;99.90;;;;;;5101111;28;20039;-60
2022/05/15 04:35:02;;;;;;;22.00;8.90;;;10.30;99.90;;;;;;5099915;28;20042;-60
2022/05/15 04:37:28;;;;;;;21.42;8.38;;;10.30;99.90;;;;;;5099174;28;20043;-60
2022/05/15 04:39:54;;;;;;;25.02;9.43;;;10.40;99.90;;;;;;5101511;28;20535;-60
2022/05/15 04:42:19;;;;;;;21.98;7.72;;;10.30;99.90;;;;;;5103213;28;20039;-60
2022/05/15 04:44:45;;;;;;;29.05;8.32;;;10.30;99.90;;;;;;5098673;28;20435;-60
2022/05/15 04:47:14;;;;;;;20.65;7.82;;;10.40;99.90;;;;;;5102253;28;20039;-61
2022/05/15 04:49:40;;;;;;;22.13;8.35;;;10.60;99.90;;;;;;5102341;28;20040;-60
2022/05/15 04:52:06;;;;;;;23.30;7.80;;;10.80;99.90;;;;;;5101193;28;20556;-60
2022/05/15 04:54:32;;;;;;;22.15;7.55;;;11.10;99.90;;;;;;5098641;28;20048;-61
2022/05/15 04:56:57;;;;;;;22.40;7.30;;;11.60;99.90;;;;;;5102283;28;20126;-61
2022/05/15 04:59:23;;;;;;;16.73;6.75;;;12.00;99.90;;;;;;5100447;28;20043;-60
2022/05/15 05:01:49;;;;;;;22.30;7.47;;;12.60;99.90;;;;;;5084994;28;20049;-61
2022/05/15 05:04:14;;;;;;;20.98;7.05;;;13.10;99.90;;;;;;5097293;28;20087;-61
2022/05/15 05:06:41;;;;;;;21.98;7.00;;;13.70;99.90;;;;;;5100366;28;20044;-60
2022/05/15 05:09:07;;;;;;;18.30;6.28;;;14.00;99.90;;;;;;5096888;28;20056;-61
2022/05/15 05:11:33;;;;;;;25.52;7.50;;;14.20;99.90;;;;;;5100825;28;20097;-61
2022/05/15 05:13:58;;;;;;;20.70;6.32;;;14.50;99.90;;;;;;5101176;28;20028;-60
2022/05/15 05:16:25;;;;;;;22.23;6.72;;;14.80;99.90;;;;;;5082623;28;20380;-61
2022/05/15 05:18:51;;;;;;;20.77;6.30;;;15.00;99.90;;;;;;5099228;28;20493;-61
2022/05/15 05:21:17;;;;;;;15.85;6.32;;;15.20;99.90;;;;;;5100488;28;20276;-60
2022/05/15 05:23:42;;;;;;;19.75;6.15;;;15.70;99.90;;;;;;5098939;28;20036;-61
2022/05/15 05:26:08;;;;;;;18.65;5.72;;;16.20;99.90;;;;;;5083556;28;20044;-61
2022/05/15 05:28:34;;;;;;;20.80;6.10;;;16.60;99.90;;;;;;5100963;28;20051;-61
2022/05/15 05:30:59;;;;;;;16.65;5.82;;;16.40;99.90;;;;;;5101340;28;20114;-60
2022/05/15 05:33:26;;;;;;;16.42;5.63;;;16.70;99.90;;;;;;5095168;28;20033;-61
2022/05/15 05:35:53;;;;;;;21.85;5.72;;;16.90;99.90;;;;;;5099444;28;20031;-61
2022/05/15 05:38:18;;;;;;;17.17;5.60;;;17.00;99.90;;;;;;5101378;28;20054;-61
2022/05/15 05:40:44;;;;;;;18.27;5.70;;;17.50;99.90;;;;;;5099484;28;20044;-61
2022/05/15 05:43:10;;;;;;;19.83;6.05;;;17.60;99.90;;;;;;5100408;28;20040;-61
2022/05/15 05:45:36;;;;;;;19.98;6.13;;;17.60;99.90;;;;;;5080292;28;20048;-61
2022/05/15 05:48:02;;;;;;;21.80;6.40;;;18.10;99.90;;;;;;5099999;28;20043;-61
2022/05/15 05:50:29;;;;;;;20.83;5.82;;;17.90;99.90;;;;;;5101469;28;20039;-61
2022/05/15 05:52:55;;;;;;;19.55;6.25;;;18.20;99.90;;;;;;5104476;28;20446;-61
2022/05/15 05:55:22;;;;;;;18.30;6.53;;;18.20;99.90;;;;;;5101223;28;20059;-61
2022/05/15 05:57:48;;;;;;;13.50;4.88;;;18.30;99.90;;;;;;5105584;28;20559;-60
2022/05/15 06:00:21;;;;;;;21.45;5.90;;;18.30;99.90;;;;;;5103677;28;20036;-61
2022/05/15 06:02:47;;;;;;;18.47;5.47;;;19.00;99.90;;;;;;5098576;28;20044;-61
2022/05/15 06:05:13;;;;;;;12.65;4.65;;;19.20;99.90;;;;;;5102045;28;20075;-61
2022/05/15 06:07:39;;;;;;;22.50;5.85;;;19.30;99.90;;;;;;5105573;28;20476;-61
2022/05/15 06:10:07;;;;;;;19.63;5.38;;;19.70;99.90;;;;;;5103447;28;20048;-61
2022/05/15 06:12:33;;;;;;;17.65;5.20;;;20.00;99.90;;;;;;5104083;28;20100;-61
2022/05/15 06:14:58;;;;;;;17.50;5.63;;;20.10;99.90;;;;;;5102325;28;20048;-61
2022/05/15 06:17:27;;;;;;;15.95;5.30;;;19.70;99.90;;;;;;5104766;28;20123;-61
2022/05/15 06:19:53;;;;;;;19.15;5.30;;;19.60;99.90;;;;;;5087763;28;20035;-61
2022/05/15 06:22:19;;;;;;;14.55;4.30;;;19.70;99.90;;;;;;5104971;28;20048;-62
2022/05/15 06:24:44;;;;;;;16.23;5.28;;;19.90;99.90;;;;;;5100263;28;20035;-61
2022/05/15 06:27:12;;;;;;;13.88;5.03;;;20.40;99.90;;;;;;5105176;28;20213;-61
2022/05/15 06:29:39;;;;;;;14.93;5.30;;;20.20;99.90;;;;;;5104941;28;20042;-61
2022/05/15 06:32:06;;;;;;;17.25;5.80;;;20.40;99.90;;;;;;5100234;28;20052;-61
2022/05/15 06:34:32;;;;;;;17.13;5.00;;;20.70;99.40;;;;;;5101633;28;20067;-62
2022/05/15 06:36:58;;;;;;;16.88;4.53;;;21.00;99.10;;;;;;5104885;28;20059;-61
2022/05/15 06:39:24;;;;;;;13.30;5.22;;;21.10;98.80;;;;;;5103456;28;20039;-61
2022/05/15 06:41:50;;;;;;;18.27;5.80;;;20.60;99.10;;;;;;5104229;28;20360;-61
2022/05/15 06:44:17;;;;;;;13.75;4.43;;;20.30;99.70;;;;;;5098253;28;20051;-61
2022/05/15 06:46:43;;;;;;;12.80;4.72;;;20.40;99.70;;;;;;5102822;28;20121;-61
2022/05/15 06:49:09;;;;;;;17.98;6.22;;;20.60;99.40;;;;;;5086860;28;20103;-62
2022/05/15 06:51:35;;;;;;;15.73;5.07;;;21.50;97.90;;;;;;5092073;28;20040;-61
2022/05/15 06:54:01;;;;;;;16.10;4.57;;;21.00;98.60;;;;;;5093413;28;20412;-59
2022/05/15 06:59:11;;;;;;;16.08;4.57;;;21.10;98.50;;;;;;5092936;28;20342;-61
2022/05/15 07:01:38;;;;;;;14.18;4.53;;;21.00;98.70;;;;;;5089235;28;20475;-60
2022/05/15 07:04:04;;;;;;;15.57;4.80;;;21.00;98.30;;;;;;5089456;28;20036;-62
2022/05/15 07:06:30;;;;;;;16.98;4.72;;;21.20;98.50;;;;;;5087850;28;20457;-60
2022/05/15 07:08:57;;;;;;;15.88;5.13;;;20.90;99.00;;;;;;5088039;28;20056;-61
2022/05/15 07:11:23;;;;;;;15.50;5.22;;;20.60;99.30;;;;;;5094222;28;20101;-60
2022/05/15 07:13:49;;;;;;;17.58;5.13;;;20.20;99.90;;;;;;5102918;28;20036;-60
2022/05/15 07:16:15;;;;;;;13.85;4.88;;;19.90;99.90;;;;;;5102400;28;20039;-60
2022/05/15 07:18:42;;;;;;;12.70;4.13;;;19.90;99.90;;;;;;5086024;28;20039;-60
2022/05/15 07:21:08;;;;;;;15.90;4.40;;;19.80;99.90;;;;;;5097268;28;20045;-60
2022/05/15 07:23:37;;;;;;;13.50;5.00;;;19.50;99.90;;;;;;5093150;28;20040;-61
2022/05/15 07:26:03;;;;;;;13.93;4.75;;;19.40;99.90;;;;;;5105898;28;20127;-62
2022/05/15 07:28:29;;;;;;;13.48;4.70;;;19.30;99.90;;;;;;5103953;28;20116;-60
2022/05/15 07:30:56;;;;;;;13.55;4.50;;;19.50;99.90;;;;;;5105423;28;20138;-62
2022/05/15 07:33:27;;;;;;;15.25;4.70;;;19.70;99.90;;;;;;5104946;27;20394;-61
2022/05/15 07:35:57;;;;;;;16.90;3.88;;;19.80;99.90;;;;;;5104600;27;20032;-61
2022/05/15 07:38:24;;;;;;;13.82;4.22;;;19.90;99.90;;;;;;5105940;27;20127;-59
2022/05/15 07:40:52;;;;;;;17.02;4.50;;;20.00;99.90;;;;;;5092200;27;20046;-60
2022/05/15 07:43:18;;;;;;;12.75;4.38;;;20.10;99.90;;;;;;5126804;27;20043;-59
2022/05/15 07:45:44;;;;;;;12.85;4.15;;;20.00;99.90;;;;;;5092776;27;20475;-59
2022/05/15 07:48:10;;;;;;;12.52;3.75;;;19.80;99.90;;;;;;5101141;28;20082;-60
2022/05/15 07:50:37;;;;;;;12.40;3.92;;;19.90;99.90;;;;;;5103035;27;20066;-59
2022/05/15 07:53:03;;;;;;;10.13;3.55;;;20.00;99.90;;;;;;5106337;27;20672;-60
2022/05/15 07:55:28;;;;;;;15.25;4.00;;;20.00;99.90;;;;;;5102464;27;20039;-61
2022/05/15 07:57:54;;;;;;;10.00;3.42;;;20.10;99.90;;;;;;5105173;27;20499;-60
2022/05/15 08:00:20;;;;;;;13.93;3.92;;;20.00;99.90;;;;;;5096032;27;20046;-60
2022/05/15 08:02:46;;;;;;;15.40;4.70;;;20.20;99.90;;;;;;5088741;27;20188;-61
2022/05/15 08:08:09;;;;;;;12.20;4.07;;;20.30;99.70;;;;;;5102086;27;20047;-60
2022/05/15 08:10:43;;;;;;;12.55;3.83;;;20.10;99.90;;;;;;5105116;27;20047;-61
2022/05/15 08:13:12;;;;;;;15.75;4.90;;;20.30;99.90;;;;;;5117847;27;20039;-60
2022/05/15 08:15:38;;;;;;;15.40;4.10;;;20.30;99.90;;;;;;5093043;28;20175;-60
2022/05/15 08:23:44;;;;;;;12.90;3.78;;;20.40;99.80;;;;;;5099965;28;20059;-60
2022/05/15 08:26:11;;;;;;;17.10;4.28;;;20.50;99.90;;;;;;5121622;27;20491;-60
2022/05/15 08:28:37;;;;;;;11.70;3.65;;;20.60;99.80;;;;;;5105156;27;20044;-60
2022/05/15 08:31:04;;;;;;;14.95;4.15;;;20.80;99.80;;;;;;5091159;27;20401;-60
2022/05/15 08:33:31;;;;;;;20.05;4.55;;;20.90;99.50;;;;;;5104465;27;20123;-60
2022/05/15 08:35:57;;;;;;;12.48;3.50;;;20.90;99.20;;;;;;5100259;27;20618;-60
2022/05/15 08:38:23;;;;;;;15.40;4.10;;;20.80;99.20;;;;;;5088150;27;20043;-60
2022/05/15 08:41:07;;;;;;;14.68;3.70;;;20.90;99.10;;;;;;5105858;27;20034;-60
2022/05/15 08:43:53;;;;;;;12.48;4.05;;;21.00;99.50;;;;;;5104031;27;20044;-60
2022/05/15 08:46:31;;;;;;;13.02;3.88;;;21.20;98.90;;;;;;5085435;27;20044;-60
2022/05/15 08:49:11;;;;;;;17.38;4.47;;;21.10;98.70;;;;;;5101389;27;20126;-60
2022/05/15 08:51:45;;;;;;;12.63;4.22;;;21.20;98.60;;;;;;5102465;27;20039;-60
2022/05/15 08:54:12;;;;;;;13.35;4.43;;;21.20;98.40;;;;;;5095544;28;20086;-60
2022/05/15 08:56:46;;;;;;;15.07;4.05;;;21.20;98.40;;;;;;5088580;27;20074;-60
2022/05/15 08:59:26;;;;;;;11.52;3.70;;;21.40;98.30;;;;;;5121161;27;20107;-62
2022/05/15 09:01:54;;;;;;;16.55;3.92;;;21.50;97.90;;;;;;5102333;27;20035;-62
2022/05/15 09:04:21;;;;;;;13.10;4.22;;;21.40;98.20;;;;;;5100928;27;20130;-60
2022/05/15 09:07:10;;;;;;;15.43;3.92;;;21.40;97.80;;;;;;5100093;27;20050;-59
2022/05/15 09:09:51;;;;;;;17.33;4.68;;;21.50;97.90;;;;;;5101302;27;20101;-59
2022/05/15 09:12:20;;;;;;;17.65;4.40;;;21.60;97.90;;;;;;5119431;27;20100;-59
2022/05/15 09:15:05;;;;;;;15.68;4.43;;;21.70;98.00;;;;;;5096709;27;20071;-59
2022/05/15 09:17:37;;;;;;;15.70;4.20;;;21.80;97.30;;;;;;5101432;27;20118;-60
2022/05/15 09:20:12;;;;;;;14.30;3.78;;;21.70;97.30;;;;;;5103487;27;20050;-59
2022/05/15 09:22:47;;;;;;;16.42;4.35;;;21.80;97.10;;;;;;5121688;27;20031;-60
2022/05/15 09:25:22;;;;;;;14.85;4.35;;;21.70;97.20;;;;;;5101935;27;20039;-59
2022/05/15 09:28:05;;;;;;;12.75;3.65;;;21.80;97.30;;;;;;5117120;27;20347;-60
2022/05/15 09:30:42;;;;;;;18.27;4.70;;;21.90;97.00;;;;;;5096901;28;20043;-60
2022/05/15 09:33:26;;;;;;;14.48;4.30;;;22.00;96.90;;;;;;5111878;28;20130;-60
2022/05/15 09:36:14;;;;;;;11.73;4.00;;;22.10;96.80;;;;;;5112669;27;20459;-61
2022/05/15 09:38:40;;;;;;;18.63;4.47;;;22.10;96.60;;;;;;5116132;27;20050;-61
2022/05/15 09:44:36;;;;;;;14.80;3.72;;;22.00;96.60;;;;;;5067583;27;20044;-60
2022/05/15 09:47:15;;;;;;;14.68;4.45;;;22.00;96.70;;;;;;5120794;28;20074;-60
2022/05/15 09:49:42;;;;;;;12.93;4.25;;;22.10;96.40;;;;;;5121100;28;20046;-60
2022/05/15 09:52:14;;;;;;;17.95;4.65;;;22.10;96.40;;;;;;5122308;28;20054;-60
2022/05/15 09:54:45;;;;;;;17.77;5.13;;;22.00;96.60;;;;;;5100153;28;20042;-60
2022/05/15 09:57:24;;;;;;;14.18;4.22;;;22.10;96.20;;;;;;5100334;28;20031;-60
2022/05/15 10:00:05;;;;;;;14.55;3.85;;;22.10;96.00;;;;;;5116201;28;20028;-60
2022/05/15 10:02:44;;;;;;;14.38;3.97;;;22.00;96.30;;;;;;5099690;28;20044;-60
2022/05/15 10:05:28;;;;;;;12.23;4.07;;;22.00;96.60;;;;;;5116583;28;20487;-60
2022/05/15 10:08:10;;;;;;;14.65;4.45;;;22.20;96.60;;;;;;5105781;28;20046;-60
2022/05/15 10:10:49;;;;;;;13.18;4.03;;;22.50;95.90;;;;;;5097035;28;20136;-60
2022/05/15 10:13:14;;;;;;;12.85;3.97;;;22.70;95.90;;;;;;5096726;28;20252;-60
2022/05/15 10:15:47;;;;;;;16.45;4.22;;;22.80;96.00;;;;;;5101888;28;20119;-60
2022/05/15 10:18:20;;;;;;;15.15;4.32;;;22.80;95.10;;;;;;5102882;28;20407;-61
2022/05/15 10:20:48;;;;;;;13.40;4.70;;;23.00;95.10;;;;;;5102168;28;20039;-61
2022/05/15 10:23:32;;;;;;;16.40;4.00;;;23.20;94.70;;;;;;5094518;28;20387;-61
2022/05/15 10:26:23;;;;;;;16.38;4.30;;;23.20;94.70;;;;;;5094459;28;20040;-63
2022/05/15 10:29:18;;;;;;;11.88;4.63;;;23.10;94.30;;;;;;5075981;28;20055;-62
2022/05/15 10:32:35;;;;;;;11.95;4.00;;;23.00;94.40;;;;;;5094567;28;20051;-62
2022/05/15 10:35:13;;;;;;;17.60;4.35;;;23.00;94.40;;;;;;5090733;28;20109;-61
2022/05/15 10:38:04;;;;;;;13.45;3.70;;;23.00;94.30;;;;;;5090413;28;20152;-61
2022/05/15 10:40:54;;;;;;;14.40;4.15;;;23.10;94.20;;;;;;5106601;27;20400;-62
2022/05/15 10:44:13;;;;;;;13.45;4.18;;;23.20;94.00;;;;;;5094033;28;20067;-61
2022/05/15 10:46:52;;;;;;;14.77;4.53;;;23.10;93.80;;;;;;5029026;28;20721;-62
2022/05/15 10:49:36;;;;;;;11.98;4.00;;;23.10;93.40;;;;;;5088193;28;20048;-61
2022/05/15 10:52:10;;;;;;;14.90;4.50;;;23.10;93.20;;;;;;5103752;28;20040;-62
2022/05/15 10:57:44;;;;;;;13.68;3.80;;;23.40;92.80;;;;;;5101510;28;20035;-61
2022/05/15 11:00:37;;;;;;;13.20;3.95;;;23.70;92.30;;;;;;5101031;28;20160;-61
2022/05/15 11:03:14;;;;;;;11.88;3.72;;;23.70;92.70;;;;;;5102494;28;20035;-61
2022/05/15 11:06:01;;;;;;;14.55;3.97;;;23.80;92.40;;;;;;5099138;28;20047;-62
2022/05/15 11:08:31;;;;;;;13.02;3.80;;;23.90;91.60;;;;;;5103150;28;20040;-61
2022/05/15 11:11:14;;;;;;;13.95;3.97;;;23.80;91.70;;;;;;5100591;28;20104;-61
2022/05/15 11:14:05;;;;;;;16.67;4.07;;;23.60;92.20;;;;;;5097611;28;20044;-60
2022/05/15 11:16:44;;;;;;;10.00;3.67;;;23.60;91.40;;;;;;5099237;28;20075;-60
2022/05/15 11:19:39;;;;;;;15.52;4.45;;;23.60;91.70;;;;;;5094752;28;20126;-61
2022/05/15 11:22:33;;;;;;;12.07;3.85;;;23.70;92.00;;;;;;5098680;28;20036;-61
2022/05/15 11:25:04;;;;;;;;;;;23.80;91.60;;;;;;5102409;28;20038;-61
2022/05/15 11:27:38;;;;;;;14.45;3.67;;;23.90;91.80;;;;;;5103153;28;20268;-61
2022/05/15 11:30:09;;;;;;;;;;;23.80;91.20;;;;;;5103775;28;20044;-61
2022/05/15 11:32:44;;;;;;;11.45;3.92;;;23.80;91.10;;;;;;5103570;28;19948;-61
2022/05/15 11:35:18;;;;;;;10.50;3.55;;;24.00;90.50;;;;;;5099542;28;20043;-60
2022/05/15 11:37:55;;;;;;;13.68;3.58;;;24.00;90.60;;;;;;5104373;28;20139;-60
2022/05/15 11:40:44;;;;;;;11.85;4.30;;;23.90;91.50;;;;;;5106031;28;20097;-60
2022/05/15 11:43:30;;;;;;;9.10;3.63;;;24.00;91.40;;;;;;5099554;28;20052;-60
2022/05/15 11:46:10;;;;;;;12.07;3.67;;;24.00;91.40;;;;;;5099262;28;20086;-60
2022/05/15 11:48:38;;;;;;;11.65;4.50;;;24.20;91.30;;;;;;5102371;28;20522;-60
2022/05/15 11:51:26;;;;;;;12.00;3.75;;;24.20;91.20;;;;;;5106824;28;20135;-60
2022/05/15 11:54:08;;;;;;;12.60;3.97;;;24.00;90.90;;;;;;5104445;28;20079;-61
2022/05/15 11:56:55;;;;;;;13.52;3.63;;;24.00;91.10;;;;;;5102394;28;20040;-60
2022/05/15 11:59:26;;;;;;;17.02;4.38;;;24.00;91.20;;;;;;5104322;28;20059;-60
2022/05/15 12:01:56;;;;;;;14.88;3.88;;;23.90;91.10;;;;;;5103504;28;20028;-61
2022/05/15 12:04:58;;;;;;;13.55;3.67;;;23.90;91.10;;;;;;5102189;28;20043;-60
2022/05/15 12:07:47;;;;;;;12.38;3.92;;;24.10;90.60;;;;;;5101306;28;20039;-60
2022/05/15 12:10:21;;;;;;;13.02;3.72;;;24.10;90.80;;;;;;5099153;28;20051;-61
2022/05/15 12:13:01;;;;;;;12.88;3.45;;;24.20;90.90;;;;;;5098241;28;20047;-60
2022/05/15 12:16:16;;;;;;;13.85;3.92;;;24.50;88.10;;;;;;5102168;28;20063;-61
2022/05/15 12:18:43;;;;;;;;;;;24.10;90.10;;;;;;5077520;28;20040;-60
2022/05/15 12:21:13;;;;;;;14.27;4.20;;;24.00;90.60;;;;;;5109405;28;19930;-61
2022/05/15 12:26:57;;;;;;;12.30;3.63;;;24.10;90.80;;;;;;5105841;28;20401;-61
2022/05/15 12:29:31;;;;;;;13.13;3.80;;;24.20;90.30;;;;;;5075186;28;20043;-61
2022/05/15 12:31:57;;;;;;;11.43;3.90;;;24.30;90.30;;;;;;5103528;28;20044;-60
2022/05/15 12:34:37;;;;;;;12.75;4.00;;;24.40;90.20;;;;;;5100849;28;20028;-59
2022/05/15 12:37:06;;;;;;;11.35;4.28;;;24.40;90.00;;;;;;5100890;28;20419;-60
2022/05/15 12:39:42;;;;;;;16.60;3.72;;;24.60;90.40;;;;;;5102773;28;20046;-60
2022/05/15 12:42:23;;;;;;;13.25;4.00;;;24.60;89.20;;;;;;5097973;28;20345;-59
2022/05/15 12:45:22;;;;;;;12.68;3.67;;;24.40;90.00;;;;;;5095277;28;20043;-59
2022/05/15 12:48:06;;;;;;;13.10;3.63;;;24.30;90.20;;;;;;5076320;28;20052;-59
2022/05/15 12:50:33;;;;;;;13.32;4.03;;;24.50;88.50;;;;;;5099778;28;20043;-60
2022/05/15 12:53:03;;;;;;;11.10;3.40;;;24.50;89.80;;;;;;5101026;28;20478;-59
2022/05/15 12:55:32;;;;;;;12.40;4.22;;;24.40;89.70;;;;;;5095648;28;20085;-59
2022/05/15 12:57:59;;;;;;;11.40;3.55;;;24.60;90.00;;;;;;5102476;28;20074;-59
2022/05/15 13:00:32;;;;;;;14.25;4.03;;;24.80;88.50;;;;;;5100270;28;20068;-59
2022/05/15 13:03:05;;;;;;;10.77;3.15;;;24.70;89.00;;;;;;5101172;28;20031;-60
2022/05/15 13:05:35;;;;;;;12.53;3.67;;;24.70;88.70;;;;;;5099579;28;20132;-59
2022/05/15 13:08:04;;;;;;;13.07;4.00;;;24.70;89.00;;;;;;5103796;28;20631;-60
2022/05/15 13:10:31;;;;;;;13.30;3.55;;;24.50;88.20;;;;;;5101565;28;20040;-60
2022/05/15 13:13:19;;;;;;;11.13;3.55;;;24.60;89.30;;;;;;5101375;28;20144;-60
2022/05/15 13:15:48;;;;;;;12.25;3.97;;;24.90;87.30;;;;;;5098137;28;20103;-59
2022/05/15 13:18:14;;;;;;;12.75;3.42;;;25.00;87.90;;;;;;5101377;28;20039;-57
2022/05/15 13:20:44;;;;;;;12.43;3.80;;;25.00;87.20;;;;;;5105441;28;20032;-57